sensor_id;sensor_type;location;lat;lon;timestamp;P1;durP1;ratioP1;P2;durP2;ratioP2
59504;SDS011;45321;53.200;5.814;2023-03-18T00:02:02;26.40;;;17.23;;
59504;SDS011;45321;53.200;5.814;2023-03-18T00:04:28;24.52;;;17.05;;
59504;SDS011;45321;53.200;5.814;2023-03-18T00:06:55;22.05;;;17.88;;
59504;SDS011;45321;53.200;5.814;2023-03-18T00:09:22;26.23;;;17.48;;
59504;SDS011;45321;53.200;5.814;2023-03-18T00:11:48;22.23;;;18.20;;
59504;SDS011;45321;53.200;5.814;2023-03-18T00:14:13;20.52;;;17.27;;
59504;SDS011;45321;53.200;5.814;2023-03-18T00:16:39;22.05;;;16.77;;
59504;SDS011;45321;53.200;5.814;2023-03-18T00:19:05;22.02;;;17.20;;
59504;SDS011;45321;53.200;5.814;2023-03-18T00:21:31;22.27;;;17.98;;
59504;SDS011;45321;53.200;5.814;2023-03-18T00:23:58;27.95;;;19.92;;
59504;SDS011;45321;53.200;5.814;2023-03-18T00:26:25;24.17;;;18.67;;
59504;SDS011;45321;53.200;5.814;2023-03-18T00:28:52;20.67;;;18.30;;
59504;SDS011;45321;53.200;5.814;2023-03-18T00:31:19;22.13;;;18.52;;
59504;SDS011;45321;53.200;5.814;2023-03-18T00:33:48;23.20;;;18.73;;
59504;SDS011;45321;53.200;5.814;2023-03-18T00:36:14;25.75;;;17.73;;
59504;SDS011;45321;53.200;5.814;2023-03-18T00:38:42;24.27;;;19.20;;
59504;SDS011;45321;53.200;5.814;2023-03-18T00:41:10;26.98;;;19.73;;
59504;SDS011;45321;53.200;5.814;2023-03-18T00:43:43;27.35;;;19.75;;
59504;SDS011;45321;53.200;5.814;2023-03-18T00:46:18;25.48;;;20.58;;
59504;SDS011;45321;53.200;5.814;2023-03-18T00:48:46;33.97;;;21.67;;
59504;SDS011;45321;53.200;5.814;2023-03-18T00:51:12;27.48;;;21.40;;
59504;SDS011;45321;53.200;5.814;2023-03-18T00:53:45;27.48;;;22.85;;
59504;SDS011;45321;53.200;5.814;2023-03-18T00:56:13;26.02;;;22.52;;
59504;SDS011;45321;53.200;5.814;2023-03-18T00:58:42;28.20;;;23.63;;
59504;SDS011;45321;53.200;5.814;2023-03-18T01:01:09;27.30;;;24.27;;
59504;SDS011;45321;53.200;5.814;2023-03-18T01:03:36;29.15;;;25.10;;
59504;SDS011;45321;53.200;5.814;2023-03-18T01:06:03;37.22;;;26.52;;
59504;SDS011;45321;53.200;5.814;2023-03-18T01:08:29;34.35;;;25.98;;
59504;SDS011;45321;53.200;5.814;2023-03-18T01:10:56;30.20;;;26.90;;
59504;SDS011;45321;53.200;5.814;2023-03-18T01:13:22;31.63;;;25.48;;
59504;SDS011;45321;53.200;5.814;2023-03-18T01:15:49;30.23;;;25.17;;
59504;SDS011;45321;53.200;5.814;2023-03-18T01:18:16;31.92;;;27.60;;
59504;SDS011;45321;53.200;5.814;2023-03-18T01:20:42;34.92;;;27.65;;
59504;SDS011;45321;53.200;5.814;2023-03-18T01:23:09;33.90;;;26.60;;
59504;SDS011;45321;53.200;5.814;2023-03-18T01:25:37;34.45;;;28.08;;
59504;SDS011;45321;53.200;5.814;2023-03-18T01:28:04;36.53;;;28.13;;
59504;SDS011;45321;53.200;5.814;2023-03-18T01:30:30;33.75;;;28.95;;
59504;SDS011;45321;53.200;5.814;2023-03-18T01:32:59;32.55;;;28.58;;
59504;SDS011;45321;53.200;5.814;2023-03-18T01:35:25;33.78;;;29.15;;
59504;SDS011;45321;53.200;5.814;2023-03-18T01:37:52;34.78;;;29.25;;
59504;SDS011;45321;53.200;5.814;2023-03-18T01:40:18;34.67;;;28.45;;
59504;SDS011;45321;53.200;5.814;2023-03-18T01:42:54;32.95;;;29.27;;
59504;SDS011;45321;53.200;5.814;2023-03-18T01:45:23;33.03;;;29.25;;
59504;SDS011;45321;53.200;5.814;2023-03-18T01:47:53;31.63;;;27.83;;
59504;SDS011;45321;53.200;5.814;2023-03-18T01:50:24;35.92;;;28.25;;
59504;SDS011;45321;53.200;5.814;2023-03-18T01:52:55;36.78;;;28.50;;
59504;SDS011;45321;53.200;5.814;2023-03-18T01:55:28;33.72;;;28.80;;
59504;SDS011;45321;53.200;5.814;2023-03-18T01:57:56;39.33;;;30.02;;
59504;SDS011;45321;53.200;5.814;2023-03-18T02:00:22;33.05;;;27.92;;
59504;SDS011;45321;53.200;5.814;2023-03-18T02:02:49;32.40;;;28.98;;
59504;SDS011;45321;53.200;5.814;2023-03-18T02:05:19;35.03;;;28.70;;
59504;SDS011;45321;53.200;5.814;2023-03-18T02:07:47;35.53;;;29.30;;
59504;SDS011;45321;53.200;5.814;2023-03-18T02:10:15;37.85;;;29.80;;
59504;SDS011;45321;53.200;5.814;2023-03-18T02:12:46;40.28;;;31.15;;
59504;SDS011;45321;53.200;5.814;2023-03-18T02:15:17;40.97;;;31.23;;
59504;SDS011;45321;53.200;5.814;2023-03-18T02:18:29;36.85;;;32.13;;
59504;SDS011;45321;53.200;5.814;2023-03-18T02:28:58;32.30;;;28.52;;
59504;SDS011;45321;53.200;5.814;2023-03-18T02:31:27;37.38;;;29.27;;
59504;SDS011;45321;53.200;5.814;2023-03-18T02:33:54;34.35;;;29.45;;
59504;SDS011;45321;53.200;5.814;2023-03-18T02:36:22;40.08;;;30.58;;
59504;SDS011;45321;53.200;5.814;2023-03-18T02:38:52;35.97;;;29.98;;
59504;SDS011;45321;53.200;5.814;2023-03-18T02:41:20;39.65;;;30.63;;
59504;SDS011;45321;53.200;5.814;2023-03-18T02:43:48;33.60;;;29.40;;
59504;SDS011;45321;53.200;5.814;2023-03-18T02:46:31;36.85;;;31.33;;
59504;SDS011;45321;53.200;5.814;2023-03-18T02:48:59;34.95;;;31.13;;
59504;SDS011;45321;53.200;5.814;2023-03-18T02:51:27;35.85;;;29.65;;
59504;SDS011;45321;53.200;5.814;2023-03-18T02:53:54;43.22;;;31.83;;
59504;SDS011;45321;53.200;5.814;2023-03-18T02:56:34;39.65;;;31.00;;
59504;SDS011;45321;53.200;5.814;2023-03-18T02:59:01;36.72;;;31.77;;
59504;SDS011;45321;53.200;5.814;2023-03-18T03:01:26;38.67;;;31.30;;
59504;SDS011;45321;53.200;5.814;2023-03-18T03:03:52;40.50;;;33.33;;
59504;SDS011;45321;53.200;5.814;2023-03-18T03:06:18;39.67;;;33.65;;
59504;SDS011;45321;53.200;5.814;2023-03-18T03:08:45;37.97;;;33.33;;
59504;SDS011;45321;53.200;5.814;2023-03-18T03:11:10;36.97;;;32.95;;
59504;SDS011;45321;53.200;5.814;2023-03-18T03:13:38;38.65;;;33.03;;
59504;SDS011;45321;53.200;5.814;2023-03-18T03:16:04;41.80;;;33.80;;
59504;SDS011;45321;53.200;5.814;2023-03-18T03:18:30;41.33;;;34.67;;
59504;SDS011;45321;53.200;5.814;2023-03-18T03:20:56;40.53;;;34.38;;
59504;SDS011;45321;53.200;5.814;2023-03-18T03:23:22;42.78;;;34.60;;
59504;SDS011;45321;53.200;5.814;2023-03-18T03:25:48;40.95;;;35.20;;
59504;SDS011;45321;53.200;5.814;2023-03-18T03:28:15;43.63;;;34.53;;
59504;SDS011;45321;53.200;5.814;2023-03-18T03:30:41;45.13;;;35.10;;
59504;SDS011;45321;53.200;5.814;2023-03-18T03:33:07;47.67;;;36.17;;
59504;SDS011;45321;53.200;5.814;2023-03-18T03:35:34;42.63;;;33.45;;
59504;SDS011;45321;53.200;5.814;2023-03-18T03:38:00;44.25;;;36.40;;
59504;SDS011;45321;53.200;5.814;2023-03-18T03:40:26;43.88;;;35.58;;
59504;SDS011;45321;53.200;5.814;2023-03-18T03:42:52;53.78;;;38.35;;
59504;SDS011;45321;53.200;5.814;2023-03-18T03:45:18;46.70;;;37.92;;
59504;SDS011;45321;53.200;5.814;2023-03-18T03:47:44;53.03;;;37.10;;
59504;SDS011;45321;53.200;5.814;2023-03-18T03:50:11;46.05;;;38.05;;
59504;SDS011;45321;53.200;5.814;2023-03-18T03:52:37;47.60;;;38.22;;
59504;SDS011;45321;53.200;5.814;2023-03-18T03:55:04;47.00;;;37.80;;
59504;SDS011;45321;53.200;5.814;2023-03-18T03:57:32;46.35;;;37.25;;
59504;SDS011;45321;53.200;5.814;2023-03-18T03:59:59;45.80;;;37.78;;
59504;SDS011;45321;53.200;5.814;2023-03-18T04:02:26;45.92;;;37.95;;
59504;SDS011;45321;53.200;5.814;2023-03-18T04:04:52;51.13;;;39.60;;
59504;SDS011;45321;53.200;5.814;2023-03-18T04:07:18;51.00;;;39.88;;
59504;SDS011;45321;53.200;5.814;2023-03-18T04:09:44;48.40;;;39.50;;
59504;SDS011;45321;53.200;5.814;2023-03-18T04:12:10;51.90;;;42.00;;
59504;SDS011;45321;53.200;5.814;2023-03-18T04:14:36;52.40;;;40.58;;
59504;SDS011;45321;53.200;5.814;2023-03-18T04:17:03;53.85;;;42.53;;
59504;SDS011;45321;53.200;5.814;2023-03-18T04:19:28;55.88;;;43.38;;
59504;SDS011;45321;53.200;5.814;2023-03-18T04:21:54;56.92;;;42.38;;
59504;SDS011;45321;53.200;5.814;2023-03-18T04:24:21;51.72;;;42.20;;
59504;SDS011;45321;53.200;5.814;2023-03-18T04:26:47;46.65;;;38.65;;
59504;SDS011;45321;53.200;5.814;2023-03-18T04:29:14;52.45;;;40.45;;
59504;SDS011;45321;53.200;5.814;2023-03-18T04:31:39;61.92;;;40.53;;
59504;SDS011;45321;53.200;5.814;2023-03-18T04:34:06;78.25;;;42.25;;
59504;SDS011;45321;53.200;5.814;2023-03-18T04:36:32;132.13;;;44.85;;
59504;SDS011;45321;53.200;5.814;2023-03-18T04:38:58;115.43;;;45.30;;
59504;SDS011;45321;53.200;5.814;2023-03-18T04:41:24;84.45;;;45.33;;
59504;SDS011;45321;53.200;5.814;2023-03-18T04:43:50;88.07;;;46.33;;
59504;SDS011;45321;53.200;5.814;2023-03-18T04:46:15;136.77;;;46.05;;
59504;SDS011;45321;53.200;5.814;2023-03-18T04:48:41;120.10;;;47.88;;
59504;SDS011;45321;53.200;5.814;2023-03-18T04:51:07;113.45;;;46.03;;
59504;SDS011;45321;53.200;5.814;2023-03-18T04:53:36;92.15;;;46.00;;
59504;SDS011;45321;53.200;5.814;2023-03-18T04:56:03;124.13;;;42.90;;
59504;SDS011;45321;53.200;5.814;2023-03-18T04:58:29;140.15;;;47.47;;
59504;SDS011;45321;53.200;5.814;2023-03-18T05:00:56;152.98;;;46.60;;
59504;SDS011;45321;53.200;5.814;2023-03-18T05:03:21;225.88;;;47.97;;
59504;SDS011;45321;53.200;5.814;2023-03-18T05:05:48;167.23;;;46.67;;
59504;SDS011;45321;53.200;5.814;2023-03-18T05:08:14;122.10;;;44.50;;
59504;SDS011;45321;53.200;5.814;2023-03-18T05:10:40;143.77;;;47.70;;
59504;SDS011;45321;53.200;5.814;2023-03-18T05:13:06;187.95;;;47.45;;
59504;SDS011;45321;53.200;5.814;2023-03-18T05:15:33;147.98;;;44.25;;
59504;SDS011;45321;53.200;5.814;2023-03-18T05:17:59;168.70;;;44.70;;
59504;SDS011;45321;53.200;5.814;2023-03-18T05:20:25;150.05;;;42.50;;
59504;SDS011;45321;53.200;5.814;2023-03-18T05:22:52;184.00;;;39.72;;
59504;SDS011;45321;53.200;5.814;2023-03-18T05:25:18;156.48;;;40.95;;
59504;SDS011;45321;53.200;5.814;2023-03-18T05:27:45;151.55;;;37.58;;
59504;SDS011;45321;53.200;5.814;2023-03-18T05:30:11;180.38;;;37.40;;
59504;SDS011;45321;53.200;5.814;2023-03-18T05:32:39;133.68;;;33.53;;
59504;SDS011;45321;53.200;5.814;2023-03-18T05:35:06;166.05;;;32.50;;
59504;SDS011;45321;53.200;5.814;2023-03-18T05:37:33;150.85;;;31.45;;
59504;SDS011;45321;53.200;5.814;2023-03-18T05:39:59;167.27;;;30.73;;
59504;SDS011;45321;53.200;5.814;2023-03-18T05:42:25;79.90;;;27.48;;
59504;SDS011;45321;53.200;5.814;2023-03-18T05:44:52;168.02;;;27.25;;
59504;SDS011;45321;53.200;5.814;2023-03-18T05:47:19;123.57;;;25.75;;
59504;SDS011;45321;53.200;5.814;2023-03-18T05:49:45;121.05;;;26.40;;
59504;SDS011;45321;53.200;5.814;2023-03-18T05:52:12;99.35;;;26.67;;
59504;SDS011;45321;53.200;5.814;2023-03-18T05:54:40;146.25;;;27.65;;
59504;SDS011;45321;53.200;5.814;2023-03-18T05:57:06;115.68;;;30.65;;
59504;SDS011;45321;53.200;5.814;2023-03-18T05:59:33;137.73;;;34.63;;
59504;SDS011;45321;53.200;5.814;2023-03-18T06:01:58;142.95;;;35.90;;
59504;SDS011;45321;53.200;5.814;2023-03-18T06:04:24;125.90;;;35.33;;
59504;SDS011;45321;53.200;5.814;2023-03-18T06:06:51;148.63;;;39.80;;
59504;SDS011;45321;53.200;5.814;2023-03-18T06:09:17;126.38;;;41.58;;
59504;SDS011;45321;53.200;5.814;2023-03-18T06:11:43;107.03;;;40.28;;
59504;SDS011;45321;53.200;5.814;2023-03-18T06:14:10;96.22;;;41.17;;
59504;SDS011;45321;53.200;5.814;2023-03-18T06:16:36;108.78;;;45.83;;
59504;SDS011;45321;53.200;5.814;2023-03-18T06:19:02;99.60;;;47.80;;
59504;SDS011;45321;53.200;5.814;2023-03-18T06:21:29;105.53;;;47.78;;
59504;SDS011;45321;53.200;5.814;2023-03-18T06:23:57;99.03;;;47.97;;
59504;SDS011;45321;53.200;5.814;2023-03-18T06:26:23;86.90;;;44.90;;
59504;SDS011;45321;53.200;5.814;2023-03-18T06:28:49;82.22;;;47.75;;
59504;SDS011;45321;53.200;5.814;2023-03-18T06:31:15;82.05;;;45.53;;
59504;SDS011;45321;53.200;5.814;2023-03-18T06:33:41;86.80;;;48.08;;
59504;SDS011;45321;53.200;5.814;2023-03-18T06:36:07;81.00;;;46.65;;
59504;SDS011;45321;53.200;5.814;2023-03-18T06:38:34;82.85;;;45.80;;
59504;SDS011;45321;53.200;5.814;2023-03-18T06:41:00;74.55;;;43.92;;
59504;SDS011;45321;53.200;5.814;2023-03-18T06:43:26;75.20;;;45.40;;
59504;SDS011;45321;53.200;5.814;2023-03-18T06:45:52;80.03;;;44.63;;
59504;SDS011;45321;53.200;5.814;2023-03-18T06:48:18;75.35;;;45.08;;
59504;SDS011;45321;53.200;5.814;2023-03-18T06:50:44;68.47;;;44.35;;
59504;SDS011;45321;53.200;5.814;2023-03-18T06:53:10;69.70;;;42.92;;
59504;SDS011;45321;53.200;5.814;2023-03-18T06:55:36;66.03;;;43.22;;
59504;SDS011;45321;53.200;5.814;2023-03-18T06:58:03;63.35;;;42.35;;
59504;SDS011;45321;53.200;5.814;2023-03-18T07:00:29;58.05;;;41.92;;
59504;SDS011;45321;53.200;5.814;2023-03-18T07:02:56;57.85;;;41.42;;
59504;SDS011;45321;53.200;5.814;2023-03-18T07:05:22;60.35;;;42.17;;
59504;SDS011;45321;53.200;5.814;2023-03-18T07:07:48;56.92;;;41.95;;
59504;SDS011;45321;53.200;5.814;2023-03-18T07:10:17;56.38;;;41.35;;
59504;SDS011;45321;53.200;5.814;2023-03-18T07:12:46;56.97;;;41.78;;
59504;SDS011;45321;53.200;5.814;2023-03-18T07:15:12;55.28;;;40.03;;
59504;SDS011;45321;53.200;5.814;2023-03-18T07:17:38;55.83;;;42.38;;
59504;SDS011;45321;53.200;5.814;2023-03-18T07:20:04;55.05;;;41.30;;
59504;SDS011;45321;53.200;5.814;2023-03-18T07:22:31;54.45;;;40.88;;
59504;SDS011;45321;53.200;5.814;2023-03-18T07:24:57;55.45;;;41.22;;
59504;SDS011;45321;53.200;5.814;2023-03-18T07:27:22;51.22;;;40.53;;
59504;SDS011;45321;53.200;5.814;2023-03-18T07:29:48;50.60;;;39.05;;
59504;SDS011;45321;53.200;5.814;2023-03-18T07:32:14;48.97;;;39.47;;
59504;SDS011;45321;53.200;5.814;2023-03-18T07:34:43;49.33;;;38.15;;
59504;SDS011;45321;53.200;5.814;2023-03-18T07:37:08;47.85;;;38.70;;
59504;SDS011;45321;53.200;5.814;2023-03-18T07:39:34;46.47;;;38.10;;
59504;SDS011;45321;53.200;5.814;2023-03-18T07:42:01;46.65;;;37.33;;
59504;SDS011;45321;53.200;5.814;2023-03-18T07:44:27;46.42;;;38.17;;
59504;SDS011;45321;53.200;5.814;2023-03-18T07:46:53;45.85;;;37.30;;
59504;SDS011;45321;53.200;5.814;2023-03-18T07:49:19;44.05;;;37.17;;
59504;SDS011;45321;53.200;5.814;2023-03-18T07:51:45;43.15;;;35.80;;
59504;SDS011;45321;53.200;5.814;2023-03-18T07:54:11;44.60;;;35.83;;
59504;SDS011;45321;53.200;5.814;2023-03-18T07:56:38;43.72;;;35.50;;
59504;SDS011;45321;53.200;5.814;2023-03-18T07:59:04;43.60;;;36.35;;
59504;SDS011;45321;53.200;5.814;2023-03-18T08:01:29;42.70;;;35.90;;
59504;SDS011;45321;53.200;5.814;2023-03-18T08:03:55;44.58;;;35.10;;
59504;SDS011;45321;53.200;5.814;2023-03-18T08:06:21;44.80;;;36.15;;
59504;SDS011;45321;53.200;5.814;2023-03-18T08:08:48;43.35;;;35.35;;
59504;SDS011;45321;53.200;5.814;2023-03-18T08:11:14;40.80;;;35.25;;
59504;SDS011;45321;53.200;5.814;2023-03-18T08:13:40;43.10;;;35.30;;
59504;SDS011;45321;53.200;5.814;2023-03-18T08:16:06;44.63;;;35.17;;
59504;SDS011;45321;53.200;5.814;2023-03-18T08:18:31;40.20;;;34.58;;
59504;SDS011;45321;53.200;5.814;2023-03-18T08:21:00;44.38;;;35.40;;
59504;SDS011;45321;53.200;5.814;2023-03-18T08:23:26;42.13;;;35.03;;
59504;SDS011;45321;53.200;5.814;2023-03-18T08:25:52;42.90;;;33.88;;
59504;SDS011;45321;53.200;5.814;2023-03-18T08:28:18;42.47;;;34.13;;
59504;SDS011;45321;53.200;5.814;2023-03-18T08:30:44;44.88;;;33.92;;
59504;SDS011;45321;53.200;5.814;2023-03-18T08:33:20;41.20;;;32.95;;
59504;SDS011;45321;53.200;5.814;2023-03-18T08:35:47;43.13;;;32.45;;
59504;SDS011;45321;53.200;5.814;2023-03-18T08:38:13;48.90;;;34.55;;
59504;SDS011;45321;53.200;5.814;2023-03-18T08:40:40;41.28;;;32.92;;
59504;SDS011;45321;53.200;5.814;2023-03-18T08:43:06;40.70;;;32.35;;
59504;SDS011;45321;53.200;5.814;2023-03-18T08:45:32;48.30;;;32.45;;
59504;SDS011;45321;53.200;5.814;2023-03-18T08:48:00;36.58;;;30.95;;
59504;SDS011;45321;53.200;5.814;2023-03-18T08:50:26;40.17;;;31.55;;
59504;SDS011;45321;53.200;5.814;2023-03-18T08:52:54;37.08;;;30.08;;
59504;SDS011;45321;53.200;5.814;2023-03-18T08:55:22;36.78;;;30.50;;
59504;SDS011;45321;53.200;5.814;2023-03-18T08:57:53;34.45;;;30.52;;
59504;SDS011;45321;53.200;5.814;2023-03-18T09:00:19;38.85;;;31.02;;
59504;SDS011;45321;53.200;5.814;2023-03-18T09:02:46;37.83;;;30.52;;
59504;SDS011;45321;53.200;5.814;2023-03-18T09:05:12;38.28;;;30.23;;
59504;SDS011;45321;53.200;5.814;2023-03-18T09:07:38;35.53;;;28.67;;
59504;SDS011;45321;53.200;5.814;2023-03-18T09:10:04;38.53;;;30.30;;
59504;SDS011;45321;53.200;5.814;2023-03-18T09:12:31;33.38;;;28.20;;
59504;SDS011;45321;53.200;5.814;2023-03-18T09:14:56;31.95;;;26.85;;
59504;SDS011;45321;53.200;5.814;2023-03-18T09:17:22;31.02;;;26.48;;
59504;SDS011;45321;53.200;5.814;2023-03-18T09:19:48;33.35;;;27.33;;
59504;SDS011;45321;53.200;5.814;2023-03-18T09:22:14;34.92;;;26.48;;
59504;SDS011;45321;53.200;5.814;2023-03-18T09:24:42;29.85;;;26.45;;
59504;SDS011;45321;53.200;5.814;2023-03-18T09:27:08;33.70;;;27.45;;
59504;SDS011;45321;53.200;5.814;2023-03-18T09:29:33;30.90;;;25.73;;
59504;SDS011;45321;53.200;5.814;2023-03-18T09:31:59;30.08;;;25.70;;
59504;SDS011;45321;53.200;5.814;2023-03-18T09:34:25;37.38;;;25.60;;
59504;SDS011;45321;53.200;5.814;2023-03-18T09:36:51;30.88;;;26.77;;
59504;SDS011;45321;53.200;5.814;2023-03-18T09:39:17;28.67;;;25.60;;
59504;SDS011;45321;53.200;5.814;2023-03-18T09:44:57;33.97;;;27.08;;
59504;SDS011;45321;53.200;5.814;2023-03-18T09:47:32;31.60;;;24.90;;
59504;SDS011;45321;53.200;5.814;2023-03-18T09:53:08;30.05;;;23.33;;
59504;SDS011;45321;53.200;5.814;2023-03-18T09:55:41;27.75;;;22.90;;
59504;SDS011;45321;53.200;5.814;2023-03-18T09:58:23;27.90;;;22.27;;
59504;SDS011;45321;53.200;5.814;2023-03-18T10:01:08;26.70;;;21.35;;
59504;SDS011;45321;53.200;5.814;2023-03-18T10:03:41;22.58;;;18.75;;
59504;SDS011;45321;53.200;5.814;2023-03-18T10:06:21;21.75;;;17.85;;
59504;SDS011;45321;53.200;5.814;2023-03-18T10:08:51;21.52;;;16.73;;
59504;SDS011;45321;53.200;5.814;2023-03-18T10:11:25;18.73;;;15.83;;
59504;SDS011;45321;53.200;5.814;2023-03-18T10:16:25;19.60;;;15.02;;
59504;SDS011;45321;53.200;5.814;2023-03-18T10:18:55;15.65;;;12.32;;
59504;SDS011;45321;53.200;5.814;2023-03-18T10:21:32;14.75;;;12.35;;
59504;SDS011;45321;53.200;5.814;2023-03-18T10:24:17;13.90;;;11.50;;
59504;SDS011;45321;53.200;5.814;2023-03-18T10:26:48;17.05;;;12.27;;
59504;SDS011;45321;53.200;5.814;2023-03-18T10:29:42;12.52;;;10.40;;
59504;SDS011;45321;53.200;5.814;2023-03-18T10:32:27;11.48;;;9.43;;
59504;SDS011;45321;53.200;5.814;2023-03-18T10:35:02;10.25;;;8.32;;
59504;SDS011;45321;53.200;5.814;2023-03-18T10:37:55;11.23;;;8.50;;
59504;SDS011;45321;53.200;5.814;2023-03-18T10:40:26;12.10;;;9.27;;
59504;SDS011;45321;53.200;5.814;2023-03-18T10:43:02;14.38;;;10.88;;
59504;SDS011;45321;53.200;5.814;2023-03-18T10:45:32;13.18;;;10.82;;
59504;SDS011;45321;53.200;5.814;2023-03-18T10:48:06;12.52;;;9.63;;
59504;SDS011;45321;53.200;5.814;2023-03-18T10:50:42;9.10;;;8.00;;
59504;SDS011;45321;53.200;5.814;2023-03-18T10:56:02;5.82;;;5.28;;
59504;SDS011;45321;53.200;5.814;2023-03-18T10:58:33;11.25;;;7.72;;
59504;SDS011;45321;53.200;5.814;2023-03-18T11:01:00;9.27;;;6.10;;
59504;SDS011;45321;53.200;5.814;2023-03-18T11:03:27;7.95;;;5.93;;
59504;SDS011;45321;53.200;5.814;2023-03-18T11:05:58;7.90;;;5.97;;
59504;SDS011;45321;53.200;5.814;2023-03-18T11:11:01;6.95;;;5.88;;
59504;SDS011;45321;53.200;5.814;2023-03-18T11:13:44;5.28;;;4.32;;
59504;SDS011;45321;53.200;5.814;2023-03-18T11:16:12;4.05;;;3.00;;
59504;SDS011;45321;53.200;5.814;2023-03-18T11:18:48;4.95;;;3.05;;
59504;SDS011;45321;53.200;5.814;2023-03-18T11:21:15;4.25;;;2.72;;
59504;SDS011;45321;53.200;5.814;2023-03-18T11:23:44;4.28;;;3.35;;
59504;SDS011;45321;53.200;5.814;2023-03-18T11:29:20;4.43;;;3.40;;
59504;SDS011;45321;53.200;5.814;2023-03-18T11:31:53;4.55;;;2.97;;
59504;SDS011;45321;53.200;5.814;2023-03-18T11:34:23;8.32;;;6.20;;
59504;SDS011;45321;53.200;5.814;2023-03-18T11:36:53;6.55;;;4.25;;
59504;SDS011;45321;53.200;5.814;2023-03-18T11:39:26;4.63;;;3.70;;
59504;SDS011;45321;53.200;5.814;2023-03-18T11:41:55;5.97;;;3.78;;
59504;SDS011;45321;53.200;5.814;2023-03-18T11:44:26;4.03;;;3.25;;
59504;SDS011;45321;53.200;5.814;2023-03-18T11:47:08;4.63;;;2.92;;
59504;SDS011;45321;53.200;5.814;2023-03-18T11:49:36;6.38;;;4.65;;
59504;SDS011;45321;53.200;5.814;2023-03-18T11:55:50;5.93;;;4.72;;
59504;SDS011;45321;53.200;5.814;2023-03-18T12:04:21;5.78;;;4.30;;
59504;SDS011;45321;53.200;5.814;2023-03-18T12:09:48;7.43;;;5.00;;
59504;SDS011;45321;53.200;5.814;2023-03-18T12:15:31;8.52;;;4.35;;
59504;SDS011;45321;53.200;5.814;2023-03-18T12:18:10;4.80;;;2.70;;
59504;SDS011;45321;53.200;5.814;2023-03-18T12:20:56;6.90;;;2.78;;
59504;SDS011;45321;53.200;5.814;2023-03-18T12:23:48;4.38;;;2.83;;
59504;SDS011;45321;53.200;5.814;2023-03-18T12:26:56;5.22;;;1.92;;
59504;SDS011;45321;53.200;5.814;2023-03-18T12:32:34;7.43;;;3.25;;
59504;SDS011;45321;53.200;5.814;2023-03-18T12:38:02;8.05;;;2.92;;
59504;SDS011;45321;53.200;5.814;2023-03-18T12:46:00;4.80;;;2.20;;
59504;SDS011;45321;53.200;5.814;2023-03-18T12:48:32;8.40;;;3.97;;
59504;SDS011;45321;53.200;5.814;2023-03-18T12:51:07;3.05;;;1.80;;
59504;SDS011;45321;53.200;5.814;2023-03-18T12:53:39;6.80;;;3.03;;
59504;SDS011;45321;53.200;5.814;2023-03-18T12:58:49;10.18;;;3.10;;
59504;SDS011;45321;53.200;5.814;2023-03-18T13:01:41;6.03;;;2.30;;
59504;SDS011;45321;53.200;5.814;2023-03-18T13:04:29;7.68;;;3.40;;
59504;SDS011;45321;53.200;5.814;2023-03-18T13:07:00;3.47;;;2.22;;
59504;SDS011;45321;53.200;5.814;2023-03-18T13:09:42;15.65;;;6.30;;
59504;SDS011;45321;53.200;5.814;2023-03-18T13:12:40;3.92;;;2.47;;
59504;SDS011;45321;53.200;5.814;2023-03-18T13:15:16;3.22;;;2.38;;
59504;SDS011;45321;53.200;5.814;2023-03-18T13:18:17;2.30;;;2.10;;
59504;SDS011;45321;53.200;5.814;2023-03-18T13:20:45;3.30;;;1.70;;
59504;SDS011;45321;53.200;5.814;2023-03-18T13:29:16;2.97;;;1.50;;
59504;SDS011;45321;53.200;5.814;2023-03-18T13:42:30;3.85;;;2.58;;
59504;SDS011;45321;53.200;5.814;2023-03-18T13:47:38;2.50;;;1.60;;
59504;SDS011;45321;53.200;5.814;2023-03-18T13:50:52;3.28;;;1.95;;
59504;SDS011;45321;53.200;5.814;2023-03-18T13:53:01;2.90;;;2.17;;
59504;SDS011;45321;53.200;5.814;2023-03-18T13:56:23;4.45;;;2.78;;
59504;SDS011;45321;53.200;5.814;2023-03-18T14:08:35;5.05;;;3.20;;
59504;SDS011;45321;53.200;5.814;2023-03-18T14:19:44;8.32;;;4.50;;
59504;SDS011;45321;53.200;5.814;2023-03-18T14:27:59;7.18;;;5.35;;
59504;SDS011;45321;53.200;5.814;2023-03-18T14:30:47;9.02;;;6.00;;
59504;SDS011;45321;53.200;5.814;2023-03-18T14:41:15;9.43;;;6.90;;
59504;SDS011;45321;53.200;5.814;2023-03-18T14:46:48;9.85;;;7.22;;
59504;SDS011;45321;53.200;5.814;2023-03-18T14:51:58;8.45;;;7.15;;
59504;SDS011;45321;53.200;5.814;2023-03-18T14:54:26;11.55;;;8.63;;
59504;SDS011;45321;53.200;5.814;2023-03-18T14:56:55;9.68;;;7.72;;
59504;SDS011;45321;53.200;5.814;2023-03-18T14:59:25;9.43;;;8.10;;
59504;SDS011;45321;53.200;5.814;2023-03-18T15:01:50;9.45;;;7.85;;
59504;SDS011;45321;53.200;5.814;2023-03-18T15:04:21;10.07;;;8.32;;
59504;SDS011;45321;53.200;5.814;2023-03-18T15:06:52;10.07;;;8.80;;
59504;SDS011;45321;53.200;5.814;2023-03-18T15:09:21;11.07;;;8.43;;
59504;SDS011;45321;53.200;5.814;2023-03-18T15:11:51;11.55;;;8.55;;
59504;SDS011;45321;53.200;5.814;2023-03-18T15:16:53;10.38;;;8.95;;
59504;SDS011;45321;53.200;5.814;2023-03-18T15:19:25;11.20;;;9.57;;
59504;SDS011;45321;53.200;5.814;2023-03-18T15:21:52;11.15;;;8.57;;
59504;SDS011;45321;53.200;5.814;2023-03-18T15:24:21;13.45;;;9.73;;
59504;SDS011;45321;53.200;5.814;2023-03-18T15:27:06;11.55;;;9.00;;
59504;SDS011;45321;53.200;5.814;2023-03-18T15:32:27;12.05;;;9.82;;
59504;SDS011;45321;53.200;5.814;2023-03-18T15:34:56;13.63;;;9.60;;
59504;SDS011;45321;53.200;5.814;2023-03-18T15:37:36;10.52;;;9.32;;
59504;SDS011;45321;53.200;5.814;2023-03-18T15:40:42;10.90;;;9.55;;
59504;SDS011;45321;53.200;5.814;2023-03-18T15:45:39;10.20;;;9.20;;
59504;SDS011;45321;53.200;5.814;2023-03-18T15:48:31;11.27;;;9.15;;
59504;SDS011;45321;53.200;5.814;2023-03-18T15:51:00;11.27;;;9.90;;
59504;SDS011;45321;53.200;5.814;2023-03-18T15:56:13;13.45;;;10.00;;
59504;SDS011;45321;53.200;5.814;2023-03-18T15:58:40;11.77;;;10.52;;
59504;SDS011;45321;53.200;5.814;2023-03-18T16:01:08;13.40;;;10.88;;
59504;SDS011;45321;53.200;5.814;2023-03-18T16:03:40;10.90;;;9.73;;
59504;SDS011;45321;53.200;5.814;2023-03-18T16:06:07;12.48;;;9.65;;
59504;SDS011;45321;53.200;5.814;2023-03-18T16:08:34;13.93;;;10.70;;
59504;SDS011;45321;53.200;5.814;2023-03-18T16:11:01;12.85;;;9.82;;
59504;SDS011;45321;53.200;5.814;2023-03-18T16:13:28;11.60;;;9.73;;
59504;SDS011;45321;53.200;5.814;2023-03-18T16:15:57;11.38;;;8.32;;
59504;SDS011;45321;53.200;5.814;2023-03-18T16:18:23;13.57;;;7.85;;
59504;SDS011;45321;53.200;5.814;2023-03-18T16:20:49;7.97;;;6.43;;
59504;SDS011;45321;53.200;5.814;2023-03-18T16:23:16;8.55;;;6.47;;
59504;SDS011;45321;53.200;5.814;2023-03-18T16:25:46;10.63;;;7.30;;
59504;SDS011;45321;53.200;5.814;2023-03-18T16:28:23;10.05;;;7.93;;
59504;SDS011;45321;53.200;5.814;2023-03-18T16:33:20;11.60;;;7.78;;
59504;SDS011;45321;53.200;5.814;2023-03-18T16:36:00;10.52;;;7.80;;
59504;SDS011;45321;53.200;5.814;2023-03-18T16:38:28;11.23;;;7.72;;
59504;SDS011;45321;53.200;5.814;2023-03-18T16:40:55;11.35;;;7.53;;
59504;SDS011;45321;53.200;5.814;2023-03-18T16:43:26;11.10;;;7.40;;
59504;SDS011;45321;53.200;5.814;2023-03-18T16:46:00;12.35;;;7.65;;